sensor_id;sensor_type;location;lat;lon;timestamp;pressure;altitude;pressure_sealevel;temperature;humidity
17383;BME280;8809;51.892;8.384;2023-12-28T00:02:01;99991.38;;;10.47;100.00
17383;BME280;8809;51.892;8.384;2023-12-28T00:04:28;100004.50;;;10.50;100.00
17383;BME280;8809;51.892;8.384;2023-12-28T00:06:57;100000.94;;;10.48;100.00
17383;BME280;8809;51.892;8.384;2023-12-28T00:09:23;99999.53;;;10.58;100.00
17383;BME280;8809;51.892;8.384;2023-12-28T00:11:50;99988.25;;;10.59;100.00
17383;BME280;8809;51.892;8.384;2023-12-28T00:14:17;99997.81;;;10.58;100.00
17383;BME280;8809;51.892;8.384;2023-12-28T00:16:44;99989.97;;;10.57;100.00
17383;BME280;8809;51.892;8.384;2023-12-28T00:19:11;99994.38;;;10.59;100.00
17383;BME280;8809;51.892;8.384;2023-12-28T00:21:38;100005.63;;;10.58;100.00
17383;BME280;8809;51.892;8.384;2023-12-28T00:24:07;100004.78;;;10.59;100.00
17383;BME280;8809;51.892;8.384;2023-12-28T00:26:34;100006.47;;;10.57;100.00
17383;BME280;8809;51.892;8.384;2023-12-28T00:29:01;100011.69;;;10.57;100.00
17383;BME280;8809;51.892;8.384;2023-12-28T00:31:28;100013.38;;;10.55;100.00
17383;BME280;8809;51.892;8.384;2023-12-28T00:33:55;100018.47;;;10.52;100.00
17383;BME280;8809;51.892;8.384;2023-12-28T00:36:22;100012.97;;;10.43;100.00
17383;BME280;8809;51.892;8.384;2023-12-28T00:38:48;100025.00;;;10.39;100.00
17383;BME280;8809;51.892;8.384;2023-12-28T00:41:17;100016.81;;;10.27;100.00
17383;BME280;8809;51.892;8.384;2023-12-28T00:43:44;100029.09;;;10.31;100.00
17383;BME280;8809;51.892;8.384;2023-12-28T00:46:11;100024.81;;;10.33;100.00
17383;BME280;8809;51.892;8.384;2023-12-28T00:48:38;100027.38;;;10.32;100.00
17383;BME280;8809;51.892;8.384;2023-12-28T00:51:05;100029.31;;;10.37;100.00
17383;BME280;8809;51.892;8.384;2023-12-28T00:53:34;100031.88;;;10.36;100.00
17383;BME280;8809;51.892;8.384;2023-12-28T00:56:01;100038.75;;;10.34;100.00
17383;BME280;8809;51.892;8.384;2023-12-28T00:58:29;100036.28;;;10.38;100.00
17383;BME280;8809;51.892;8.384;2023-12-28T01:00:56;100028.50;;;10.40;100.00
17383;BME280;8809;51.892;8.384;2023-12-28T01:03:23;100035.41;;;10.38;100.00
17383;BME280;8809;51.892;8.384;2023-12-28T01:05:50;100049.38;;;10.40;100.00
17383;BME280;8809;51.892;8.384;2023-12-28T01:08:18;100060.81;;;10.44;100.00
17383;BME280;8809;51.892;8.384;2023-12-28T01:10:45;100037.38;;;10.45;100.00
17383;BME280;8809;51.892;8.384;2023-12-28T01:13:12;100051.19;;;10.43;100.00
17383;BME280;8809;51.892;8.384;2023-12-28T01:15:40;100059.03;;;10.43;100.00
17383;BME280;8809;51.892;8.384;2023-12-28T01:18:07;100059.31;;;10.52;100.00
17383;BME280;8809;51.892;8.384;2023-12-28T01:20:34;100036.63;;;10.49;100.00
17383;BME280;8809;51.892;8.384;2023-12-28T01:23:01;100049.78;;;10.52;100.00
17383;BME280;8809;51.892;8.384;2023-12-28T01:25:28;100066.25;;;10.51;100.00
17383;BME280;8809;51.892;8.384;2023-12-28T01:27:55;100070.34;;;10.43;100.00
17383;BME280;8809;51.892;8.384;2023-12-28T01:30:22;100068.72;;;10.47;100.00
17383;BME280;8809;51.892;8.384;2023-12-28T01:32:50;100087.97;;;10.50;100.00
17383;BME280;8809;51.892;8.384;2023-12-28T01:35:17;100082.66;;;10.47;100.00
17383;BME280;8809;51.892;8.384;2023-12-28T01:37:44;100080.00;;;10.46;100.00
17383;BME280;8809;51.892;8.384;2023-12-28T01:40:11;100076.50;;;10.45;100.00
17383;BME280;8809;51.892;8.384;2023-12-28T01:42:40;100075.66;;;10.46;100.00
17383;BME280;8809;51.892;8.384;2023-12-28T01:45:07;100075.63;;;10.45;100.00
17383;BME280;8809;51.892;8.384;2023-12-28T01:47:35;100067.00;;;10.47;100.00
17383;BME280;8809;51.892;8.384;2023-12-28T01:50:06;100080.13;;;10.50;100.00
17383;BME280;8809;51.892;8.384;2023-12-28T01:52:33;100068.75;;;10.48;100.00
17383;BME280;8809;51.892;8.384;2023-12-28T01:55:00;100073.97;;;10.48;100.00
17383;BME280;8809;51.892;8.384;2023-12-28T01:57:28;100073.47;;;10.33;100.00
17383;BME280;8809;51.892;8.384;2023-12-28T01:59:55;100079.81;;;10.41;100.00
17383;BME280;8809;51.892;8.384;2023-12-28T02:02:24;100067.00;;;10.47;100.00
17383;BME280;8809;51.892;8.384;2023-12-28T02:04:51;100080.97;;;10.49;100.00
17383;BME280;8809;51.892;8.384;2023-12-28T02:07:20;100061.09;;;10.53;100.00
17383;BME280;8809;51.892;8.384;2023-12-28T02:09:47;100083.63;;;10.51;100.00
17383;BME280;8809;51.892;8.384;2023-12-28T02:12:14;100091.41;;;10.49;100.00
17383;BME280;8809;51.892;8.384;2023-12-28T02:14:42;100088.06;;;10.53;100.00
17383;BME280;8809;51.892;8.384;2023-12-28T02:17:13;100090.50;;;10.47;100.00
17383;BME280;8809;51.892;8.384;2023-12-28T02:19:45;100087.91;;;10.49;100.00
17383;BME280;8809;51.892;8.384;2023-12-28T02:22:14;100083.56;;;10.49;100.00
17383;BME280;8809;51.892;8.384;2023-12-28T02:24:58;100096.63;;;10.49;100.00
17383;BME280;8809;51.892;8.384;2023-12-28T02:27:25;100106.63;;;10.62;100.00
17383;BME280;8809;51.892;8.384;2023-12-28T02:29:52;100099.28;;;10.51;100.00
17383;BME280;8809;51.892;8.384;2023-12-28T02:32:24;100097.66;;;10.54;100.00
17383;BME280;8809;51.892;8.384;2023-12-28T02:34:55;100110.00;;;10.60;100.00
17383;BME280;8809;51.892;8.384;2023-12-28T02:37:26;100095.94;;;10.55;100.00
17383;BME280;8809;51.892;8.384;2023-12-28T02:39:53;100096.25;;;10.64;100.00
17383;BME280;8809;51.892;8.384;2023-12-28T02:42:22;100101.22;;;10.56;100.00
17383;BME280;8809;51.892;8.384;2023-12-28T02:44:50;100111.44;;;10.50;100.00
17383;BME280;8809;51.892;8.384;2023-12-28T02:47:17;100106.28;;;10.52;100.00
17383;BME280;8809;51.892;8.384;2023-12-28T02:49:43;100101.06;;;10.52;100.00
17383;BME280;8809;51.892;8.384;2023-12-28T02:52:10;100108.00;;;10.51;100.00
17383;BME280;8809;51.892;8.384;2023-12-28T02:54:37;100095.06;;;10.54;100.00
17383;BME280;8809;51.892;8.384;2023-12-28T02:57:04;100102.88;;;10.54;100.00
17383;BME280;8809;51.892;8.384;2023-12-28T02:59:33;100101.22;;;10.56;100.00
17383;BME280;8809;51.892;8.384;2023-12-28T03:01:59;100096.84;;;10.55;100.00
17383;BME280;8809;51.892;8.384;2023-12-28T03:04:26;100099.69;;;10.63;100.00
17383;BME280;8809;51.892;8.384;2023-12-28T03:06:53;100090.09;;;10.62;100.00
17383;BME280;8809;51.892;8.384;2023-12-28T03:09:20;100084.19;;;10.67;100.00
17383;BME280;8809;51.892;8.384;2023-12-28T03:11:47;100085.13;;;10.69;100.00
17383;BME280;8809;51.892;8.384;2023-12-28T03:14:14;100086.00;;;10.70;100.00
17383;BME280;8809;51.892;8.384;2023-12-28T03:16:42;100094.72;;;10.70;100.00
17383;BME280;8809;51.892;8.384;2023-12-28T03:19:09;100108.06;;;10.79;100.00
17383;BME280;8809;51.892;8.384;2023-12-28T03:21:38;100093.34;;;10.82;100.00
17383;BME280;8809;51.892;8.384;2023-12-28T03:24:06;100087.19;;;10.79;100.00
17383;BME280;8809;51.892;8.384;2023-12-28T03:26:37;100091.63;;;10.82;100.00
17383;BME280;8809;51.892;8.384;2023-12-28T03:29:05;100097.03;;;10.88;100.00
17383;BME280;8809;51.892;8.384;2023-12-28T03:31:32;100086.75;;;10.93;100.00
17383;BME280;8809;51.892;8.384;2023-12-28T03:34:00;100089.38;;;10.93;100.00
17383;BME280;8809;51.892;8.384;2023-12-28T03:36:27;100084.16;;;10.93;100.00
17383;BME280;8809;51.892;8.384;2023-12-28T03:38:54;100075.56;;;10.97;100.00
17383;BME280;8809;51.892;8.384;2023-12-28T03:41:21;100073.84;;;10.97;100.00
17383;BME280;8809;51.892;8.384;2023-12-28T03:43:48;100068.50;;;10.93;100.00
17383;BME280;8809;51.892;8.384;2023-12-28T03:46:18;100069.16;;;10.86;100.00
17383;BME280;8809;51.892;8.384;2023-12-28T03:48:48;100076.97;;;10.86;100.00
17383;BME280;8809;51.892;8.384;2023-12-28T03:51:20;100072.00;;;10.93;100.00
17383;BME280;8809;51.892;8.384;2023-12-28T03:53:50;100084.69;;;10.83;100.00
17383;BME280;8809;51.892;8.384;2023-12-28T03:56:21;100083.03;;;10.85;100.00
17383;BME280;8809;51.892;8.384;2023-12-28T03:58:48;100083.22;;;10.91;100.00
17383;BME280;8809;51.892;8.384;2023-12-28T04:01:18;100091.97;;;10.93;100.00
17383;BME280;8809;51.892;8.384;2023-12-28T04:03:45;100088.44;;;10.91;100.00
17383;BME280;8809;51.892;8.384;2023-12-28T04:06:13;100095.31;;;10.89;100.00
17383;BME280;8809;51.892;8.384;2023-12-28T04:08:42;100088.84;;;10.76;100.00
17383;BME280;8809;51.892;8.384;2023-12-28T04:11:09;100094.88;;;10.75;100.00
17383;BME280;8809;51.892;8.384;2023-12-28T04:13:36;100081.84;;;10.75;100.00
17383;BME280;8809;51.892;8.384;2023-12-28T04:16:05;100096.69;;;10.77;100.00
17383;BME280;8809;51.892;8.384;2023-12-28T04:18:32;100088.84;;;10.76;100.00
17383;BME280;8809;51.892;8.384;2023-12-28T04:20:58;100083.47;;;10.71;100.00
17383;BME280;8809;51.892;8.384;2023-12-28T04:23:25;100075.63;;;10.71;100.00
17383;BME280;8809;51.892;8.384;2023-12-28T04:25:53;100066.03;;;10.70;100.00
17383;BME280;8809;51.892;8.384;2023-12-28T04:28:20;100081.56;;;10.67;100.00
17383;BME280;8809;51.892;8.384;2023-12-28T04:30:47;100070.22;;;10.65;100.00
17383;BME280;8809;51.892;8.384;2023-12-28T04:33:16;100071.13;;;10.66;100.00
17383;BME280;8809;51.892;8.384;2023-12-28T04:35:44;100071.06;;;10.64;100.00
17383;BME280;8809;51.892;8.384;2023-12-28T04:38:11;100078.78;;;10.61;100.00
17383;BME280;8809;51.892;8.384;2023-12-28T04:40:38;100072.63;;;10.59;100.00
17383;BME280;8809;51.892;8.384;2023-12-28T04:43:06;100071.94;;;10.65;100.00
17383;BME280;8809;51.892;8.384;2023-12-28T04:45:33;100073.66;;;10.64;100.00
17383;BME280;8809;51.892;8.384;2023-12-28T04:48:00;100073.66;;;10.64;100.00
17383;BME280;8809;51.892;8.384;2023-12-28T04:50:27;100066.25;;;10.51;100.00
17383;BME280;8809;51.892;8.384;2023-12-28T04:52:53;100064.66;;;10.55;100.00
17383;BME280;8809;51.892;8.384;2023-12-28T04:55:20;100061.28;;;10.59;100.00
17383;BME280;8809;51.892;8.384;2023-12-28T04:57:47;100063.84;;;10.57;100.00
17383;BME280;8809;51.892;8.384;2023-12-28T05:00:16;100069.94;;;10.58;100.00
17383;BME280;8809;51.892;8.384;2023-12-28T05:02:43;100078.72;;;10.60;100.00
17383;BME280;8809;51.892;8.384;2023-12-28T05:05:11;100077.69;;;10.55;100.00
17383;BME280;8809;51.892;8.384;2023-12-28T05:07:38;100093.47;;;10.59;100.00
17383;BME280;8809;51.892;8.384;2023-12-28T05:10:06;100098.50;;;10.53;100.00
17383;BME280;8809;51.892;8.384;2023-12-28T05:12:33;100107.28;;;10.55;100.00
17383;BME280;8809;51.892;8.384;2023-12-28T05:15:00;100107.41;;;10.60;100.00
17383;BME280;8809;51.892;8.384;2023-12-28T05:17:29;100111.75;;;10.59;100.00
17383;BME280;8809;51.892;8.384;2023-12-28T05:19:56;100115.47;;;10.66;100.00
17383;BME280;8809;51.892;8.384;2023-12-28T05:22:23;100115.53;;;10.69;100.00
17383;BME280;8809;51.892;8.384;2023-12-28T05:24:50;100112.94;;;10.69;100.00
17383;BME280;8809;51.892;8.384;2023-12-28T05:27:16;100113.94;;;10.72;100.00
17383;BME280;8809;51.892;8.384;2023-12-28T05:29:44;100115.75;;;10.75;100.00
17383;BME280;8809;51.892;8.384;2023-12-28T05:32:12;100113.97;;;10.74;100.00
17383;BME280;8809;51.892;8.384;2023-12-28T05:34:40;100111.31;;;10.72;100.00
17383;BME280;8809;51.892;8.384;2023-12-28T05:37:07;100113.09;;;10.73;100.00
17383;BME280;8809;51.892;8.384;2023-12-28T05:39:34;100117.53;;;10.76;100.00
17383;BME280;8809;51.892;8.384;2023-12-28T05:42:01;100122.06;;;10.82;100.00
17383;BME280;8809;51.892;8.384;2023-12-28T05:44:28;100134.16;;;10.79;100.00
17383;BME280;8809;51.892;8.384;2023-12-28T05:46:55;100127.16;;;10.78;100.00
17383;BME280;8809;51.892;8.384;2023-12-28T05:49:23;100128.94;;;10.79;100.00
17383;BME280;8809;51.892;8.384;2023-12-28T05:51:52;100123.31;;;10.67;100.00
17383;BME280;8809;51.892;8.384;2023-12-28T05:54:19;100126.91;;;10.71;100.00
17383;BME280;8809;51.892;8.384;2023-12-28T05:56:47;100120.63;;;10.64;100.00
17383;BME280;8809;51.892;8.384;2023-12-28T05:59:15;100131.31;;;10.72;100.00
17383;BME280;8809;51.892;8.384;2023-12-28T06:01:42;100131.41;;;10.75;100.00
17383;BME280;8809;51.892;8.384;2023-12-28T06:04:09;100125.13;;;10.70;100.00
17383;BME280;8809;51.892;8.384;2023-12-28T06:06:36;100130.41;;;10.71;100.00
17383;BME280;8809;51.892;8.384;2023-12-28T06:09:04;100130.31;;;10.68;100.00
17383;BME280;8809;51.892;8.384;2023-12-28T06:11:31;100126.78;;;10.66;100.00
17383;BME280;8809;51.892;8.384;2023-12-28T06:13:58;100128.69;;;10.72;100.00
17383;BME280;8809;51.892;8.384;2023-12-28T06:16:25;100139.84;;;10.68;100.00
17383;BME280;8809;51.892;8.384;2023-12-28T06:18:52;100137.25;;;10.68;100.00
17383;BME280;8809;51.892;8.384;2023-12-28T06:21:19;100147.72;;;10.69;100.00
17383;BME280;8809;51.892;8.384;2023-12-28T06:23:46;100145.88;;;10.65;100.00
17383;BME280;8809;51.892;8.384;2023-12-28T06:26:15;100146.78;;;10.67;100.00
17383;BME280;8809;51.892;8.384;2023-12-28T06:28:42;100145.81;;;10.64;100.00
17383;BME280;8809;51.892;8.384;2023-12-28T06:31:10;100146.84;;;10.69;100.00
17383;BME280;8809;51.892;8.384;2023-12-28T06:33:37;100146.84;;;10.69;100.00
17383;BME280;8809;51.892;8.384;2023-12-28T06:36:05;100155.50;;;10.68;100.00
17383;BME280;8809;51.892;8.384;2023-12-28T06:38:32;100160.84;;;10.71;100.00
17383;BME280;8809;51.892;8.384;2023-12-28T06:41:00;100163.31;;;10.66;100.00
17383;BME280;8809;51.892;8.384;2023-12-28T06:43:28;100166.94;;;10.71;100.00
17383;BME280;8809;51.892;8.384;2023-12-28T06:45:55;100161.03;;;10.77;100.00
17383;BME280;8809;51.892;8.384;2023-12-28T06:48:22;100167.97;;;10.76;100.00
17383;BME280;8809;51.892;8.384;2023-12-28T06:50:50;100167.09;;;10.76;100.00
17383;BME280;8809;51.892;8.384;2023-12-28T06:53:17;100167.88;;;10.73;100.00
17383;BME280;8809;51.892;8.384;2023-12-28T06:55:44;100170.81;;;10.83;100.00
17383;BME280;8809;51.892;8.384;2023-12-28T06:58:11;100166.41;;;10.82;100.00
17383;BME280;8809;51.892;8.384;2023-12-28T07:00:39;100174.13;;;10.78;100.00
17383;BME280;8809;51.892;8.384;2023-12-28T07:03:06;100168.91;;;10.78;100.00
17383;BME280;8809;51.892;8.384;2023-12-28T07:05:34;100173.19;;;10.76;100.00
17383;BME280;8809;51.892;8.384;2023-12-28T07:08:01;100168.13;;;10.81;100.00
17383;BME280;8809;51.892;8.384;2023-12-28T07:10:28;100163.94;;;10.86;100.00
17383;BME280;8809;51.892;8.384;2023-12-28T07:12:55;100165.78;;;10.89;100.00
17383;BME280;8809;51.892;8.384;2023-12-28T07:15:22;100166.00;;;10.95;100.00
17383;BME280;8809;51.892;8.384;2023-12-28T07:17:50;100164.94;;;10.90;100.00
17383;BME280;8809;51.892;8.384;2023-12-28T07:20:17;100167.56;;;10.90;100.00
17383;BME280;8809;51.892;8.384;2023-12-28T07:22:44;100169.44;;;10.94;100.00
17383;BME280;8809;51.892;8.384;2023-12-28T07:25:11;100167.72;;;10.94;100.00
17383;BME280;8809;51.892;8.384;2023-12-28T07:27:38;100170.34;;;10.96;100.00
17383;BME280;8809;51.892;8.384;2023-12-28T07:30:06;100180.91;;;10.99;100.00
17383;BME280;8809;51.892;8.384;2023-12-28T07:32:33;100176.63;;;11.01;100.00
17383;BME280;8809;51.892;8.384;2023-12-28T07:35:02;100168.84;;;11.02;100.00
17383;BME280;8809;51.892;8.384;2023-12-28T07:37:31;100182.78;;;11.03;100.00
17383;BME280;8809;51.892;8.384;2023-12-28T07:39:58;100186.28;;;11.03;100.00
17383;BME280;8809;51.892;8.384;2023-12-28T07:42:25;100187.72;;;10.94;100.00
17383;BME280;8809;51.892;8.384;2023-12-28T07:44:52;100204.19;;;10.93;100.00
17383;BME280;8809;51.892;8.384;2023-12-28T07:47:19;100207.94;;;11.01;100.00
17383;BME280;8809;51.892;8.384;2023-12-28T07:49:45;100204.50;;;11.02;100.00
17383;BME280;8809;51.892;8.384;2023-12-28T07:52:14;100209.03;;;11.07;100.00
17383;BME280;8809;51.892;8.384;2023-12-28T07:54:43;100218.69;;;11.10;100.00
17383;BME280;8809;51.892;8.384;2023-12-28T07:57:13;100216.13;;;11.11;100.00
17383;BME280;8809;51.892;8.384;2023-12-28T07:59:39;100222.19;;;11.10;100.00
17383;BME280;8809;51.892;8.384;2023-12-28T08:02:06;100218.38;;;11.01;100.00
17383;BME280;8809;51.892;8.384;2023-12-28T08:04:33;100216.72;;;11.03;100.00
17383;BME280;8809;51.892;8.384;2023-12-28T08:07:00;100218.03;;;10.90;100.00
17383;BME280;8809;51.892;8.384;2023-12-28T08:09:29;100223.19;;;10.89;100.00
17383;BME280;8809;51.892;8.384;2023-12-28T08:11:56;100225.03;;;10.91;100.00
17383;BME280;8809;51.892;8.384;2023-12-28T08:14:23;100221.25;;;10.83;100.00
17383;BME280;8809;51.892;8.384;2023-12-28T08:16:49;100219.56;;;10.84;100.00
17383;BME280;8809;51.892;8.384;2023-12-28T08:19:16;100222.09;;;10.82;100.00
17383;BME280;8809;51.892;8.384;2023-12-28T08:21:43;100220.56;;;10.89;100.00
17383;BME280;8809;51.892;8.384;2023-12-28T08:24:10;100223.09;;;10.86;100.00
17383;BME280;8809;51.892;8.384;2023-12-28T08:26:39;100237.19;;;10.91;100.00
17383;BME280;8809;51.892;8.384;2023-12-28T08:29:06;100230.19;;;10.90;100.00
17383;BME280;8809;51.892;8.384;2023-12-28T08:31:35;100237.38;;;10.97;100.00
17383;BME280;8809;51.892;8.384;2023-12-28T08:34:02;100233.94;;;10.98;100.00
17383;BME280;8809;51.892;8.384;2023-12-28T08:36:29;100226.78;;;10.92;100.00
17383;BME280;8809;51.892;8.384;2023-12-28T08:38:56;100235.53;;;10.93;100.00
17383;BME280;8809;51.892;8.384;2023-12-28T08:41:23;100233.84;;;10.95;100.00
17383;BME280;8809;51.892;8.384;2023-12-28T08:43:52;100233.94;;;10.98;100.00
17383;BME280;8809;51.892;8.384;2023-12-28T08:46:19;100240.81;;;10.96;100.00
17383;BME280;8809;51.892;8.384;2023-12-28T08:48:46;100232.16;;;10.97;100.00
17383;BME280;8809;51.892;8.384;2023-12-28T08:51:13;100228.63;;;10.95;100.00
17383;BME280;8809;51.892;8.384;2023-12-28T08:53:41;100232.13;;;10.95;100.00
17383;BME280;8809;51.892;8.384;2023-12-28T08:56:16;100232.16;;;10.97;100.00
17383;BME280;8809;51.892;8.384;2023-12-28T08:58:44;100238.25;;;10.97;100.00
17383;BME280;8809;51.892;8.384;2023-12-28T09:01:17;100236.41;;;10.93;100.00
17383;BME280;8809;51.892;8.384;2023-12-28T09:03:44;100238.25;;;10.97;100.00
17383;BME280;8809;51.892;8.384;2023-12-28T09:06:11;100245.50;;;11.06;100.00
17383;BME280;8809;51.892;8.384;2023-12-28T09:08:42;100256.06;;;11.09;100.00
17383;BME280;8809;51.892;8.384;2023-12-28T09:11:10;100252.25;;;10.99;100.00
17383;BME280;8809;51.892;8.384;2023-12-28T09:13:38;100248.09;;;11.04;100.00
17383;BME280;8809;51.892;8.384;2023-12-28T09:16:05;100248.00;;;11.01;100.00
17383;BME280;8809;51.892;8.384;2023-12-28T09:18:33;100253.34;;;11.06;100.00
17383;BME280;8809;51.892;8.384;2023-12-28T09:21:02;100251.50;;;11.02;100.00
17383;BME280;8809;51.892;8.384;2023-12-28T09:23:31;100255.94;;;11.04;100.00
17383;BME280;8809;51.892;8.384;2023-12-28T09:26:01;100251.53;;;11.03;100.00
17383;BME280;8809;51.892;8.384;2023-12-28T09:28:29;100254.25;;;11.06;100.00
17383;BME280;8809;51.892;8.384;2023-12-28T09:30:56;100244.28;;;11.20;100.00
17383;BME280;8809;51.892;8.384;2023-12-28T09:33:22;100255.13;;;11.32;100.00
17383;BME280;8809;51.892;8.384;2023-12-28T09:35:51;100261.25;;;11.34;100.00
17383;BME280;8809;51.892;8.384;2023-12-28T09:38:19;100264.28;;;11.46;100.00
17383;BME280;8809;51.892;8.384;2023-12-28T09:40:47;100274.00;;;11.50;100.00
17383;BME280;8809;51.892;8.384;2023-12-28T09:43:21;100268.28;;;11.62;100.00
17383;BME280;8809;51.892;8.384;2023-12-28T09:45:49;100265.47;;;11.56;100.00
17383;BME280;8809;51.892;8.384;2023-12-28T09:48:17;100260.13;;;11.51;100.00
17383;BME280;8809;51.892;8.384;2023-12-28T09:50:44;100252.88;;;11.43;100.00
17383;BME280;8809;51.892;8.384;2023-12-28T09:53:13;100258.94;;;11.42;100.00
17383;BME280;8809;51.892;8.384;2023-12-28T09:55:40;100252.13;;;11.47;100.00
17383;BME280;8809;51.892;8.384;2023-12-28T09:58:07;100252.22;;;11.50;100.00
17383;BME280;8809;51.892;8.384;2023-12-28T10:00:35;100245.69;;;11.64;100.00
17383;BME280;8809;51.892;8.384;2023-12-28T10:03:03;100237.84;;;11.64;100.00
17383;BME280;8809;51.892;8.384;2023-12-28T10:05:30;100256.00;;;11.60;100.00
17383;BME280;8809;51.892;8.384;2023-12-28T10:07:58;100235.78;;;11.52;100.00
17383;BME280;8809;51.892;8.384;2023-12-28T10:10:26;100223.81;;;11.61;100.00
17383;BME280;8809;51.892;8.384;2023-12-28T10:12:55;100234.94;;;11.55;100.00
17383;BME280;8809;51.892;8.384;2023-12-28T10:15:22;100237.06;;;11.67;100.00
17383;BME280;8809;51.892;8.384;2023-12-28T10:17:51;100227.50;;;11.67;100.00
17383;BME280;8809;51.892;8.384;2023-12-28T10:20:18;100232.88;;;11.72;100.00
17383;BME280;8809;51.892;8.384;2023-12-28T10:22:45;100240.22;;;11.82;100.00
17383;BME280;8809;51.892;8.384;2023-12-28T10:25:12;100241.16;;;11.85;100.00
17383;BME280;8809;51.892;8.384;2023-12-28T10:27:41;100238.50;;;11.84;100.00
17383;BME280;8809;51.892;8.384;2023-12-28T10:30:09;100253.28;;;11.83;100.00
17383;BME280;8809;51.892;8.384;2023-12-28T10:32:39;100254.84;;;11.77;100.00
17383;BME280;8809;51.892;8.384;2023-12-28T10:35:07;100244.56;;;11.81;100.00
17383;BME280;8809;51.892;8.384;2023-12-28T10:37:35;100252.63;;;11.89;100.00
17383;BME280;8809;51.892;8.384;2023-12-28T10:40:05;100258.03;;;11.95;100.00
17383;BME280;8809;51.892;8.384;2023-12-28T10:42:40;100268.25;;;11.87;100.00
17383;BME280;8809;51.892;8.384;2023-12-28T10:45:11;100261.28;;;11.88;100.00
17383;BME280;8809;51.892;8.384;2023-12-28T10:47:42;100252.47;;;11.84;100.00
17383;BME280;8809;51.892;8.384;2023-12-28T10:50:11;100245.91;;;11.70;100.00
17383;BME280;8809;51.892;8.384;2023-12-28T10:52:39;100262.47;;;11.71;100.00
17383;BME280;8809;51.892;8.384;2023-12-28T10:55:20;100250.97;;;11.93;100.00
17383;BME280;8809;51.892;8.384;2023-12-28T10:57:58;100252.75;;;11.94;100.00
17383;BME280;8809;51.892;8.384;2023-12-28T11:00:30;100249.22;;;11.92;100.00
17383;BME280;8809;51.892;8.384;2023-12-28T11:03:02;100242.34;;;11.95;100.00
17383;BME280;8809;51.892;8.384;2023-12-28T11:05:31;100249.16;;;11.90;100.00
17383;BME280;8809;51.892;8.384;2023-12-28T11:07:59;100244.22;;;11.99;100.00
17383;BME280;8809;51.892;8.384;2023-12-28T11:10:29;100238.94;;;11.98;100.00
17383;BME280;8809;51.892;8.384;2023-12-28T11:12:57;100237.94;;;11.94;100.00
17383;BME280;8809;51.892;8.384;2023-12-28T11:15:26;100241.81;;;12.07;100.00
17383;BME280;8809;51.892;8.384;2023-12-28T11:17:54;100241.41;;;11.93;100.00
17383;BME280;8809;51.892;8.384;2023-12-28T11:20:21;100249.22;;;11.92;100.00
17383;BME280;8809;51.892;8.384;2023-12-28T11:22:49;100237.09;;;11.95;100.00
17383;BME280;8809;51.892;8.384;2023-12-28T11:25:17;100243.06;;;11.89;100.00
17383;BME280;8809;51.892;8.384;2023-12-28T11:27:45;100235.44;;;11.97;100.00
17383;BME280;8809;51.892;8.384;2023-12-28T11:30:13;100236.22;;;11.95;100.00
17383;BME280;8809;51.892;8.384;2023-12-28T11:32:40;100233.59;;;11.95;100.00
17383;BME280;8809;51.892;8.384;2023-12-28T11:35:11;100232.03;;;12.00;100.00
17383;BME280;8809;51.892;8.384;2023-12-28T11:37:41;100229.38;;;11.98;100.00
17383;BME280;8809;51.892;8.384;2023-12-28T11:40:11;100249.56;;;12.04;100.00
17383;BME280;8809;51.892;8.384;2023-12-28T11:42:47;100227.03;;;12.07;100.00
17383;BME280;8809;51.892;8.384;2023-12-28T11:45:16;100227.25;;;12.15;100.00
17383;BME280;8809;51.892;8.384;2023-12-28T11:47:43;100216.03;;;12.19;100.00
17383;BME280;8809;51.892;8.384;2023-12-28T11:50:12;100227.28;;;12.16;100.00
17383;BME280;8809;51.892;8.384;2023-12-28T11:52:40;100227.66;;;12.29;100.00
17383;BME280;8809;51.892;8.384;2023-12-28T11:55:07;100220.72;;;12.31;100.00
17383;BME280;8809;51.892;8.384;2023-12-28T11:57:36;100226.88;;;12.33;100.00
17383;BME280;8809;51.892;8.384;2023-12-28T12:00:05;100226.50;;;12.50;100.00
17383;BME280;8809;51.892;8.384;2023-12-28T12:02:34;100228.06;;;12.44;100.00
17383;BME280;8809;51.892;8.384;2023-12-28T12:05:01;100222.03;;;12.46;100.00
17383;BME280;8809;51.892;8.384;2023-12-28T12:07:29;100229.84;;;12.45;100.00
17383;BME280;8809;51.892;8.384;2023-12-28T12:09:57;100219.59;;;12.52;100.00
17383;BME280;8809;51.892;8.384;2023-12-28T12:12:25;100219.47;;;12.48;100.00
17383;BME280;8809;51.892;8.384;2023-12-28T12:14:52;100212.47;;;12.47;100.00
17383;BME280;8809;51.892;8.384;2023-12-28T12:17:19;100211.22;;;12.34;100.00
17383;BME280;8809;51.892;8.384;2023-12-28T12:19:46;100198.94;;;12.32;100.00
17383;BME280;8809;51.892;8.384;2023-12-28T12:22:17;100195.63;;;12.37;100.00
17383;BME280;8809;51.892;8.384;2023-12-28T12:24:47;100206.34;;;12.46;100.00
17383;BME280;8809;51.892;8.384;2023-12-28T12:27:15;100203.53;;;12.40;100.00
17383;BME280;8809;51.892;8.384;2023-12-28T12:29:42;100225.13;;;12.63;100.00
17383;BME280;8809;51.892;8.384;2023-12-28T12:32:09;100193.44;;;12.85;99.47
17383;BME280;8809;51.892;8.384;2023-12-28T12:34:38;100188.16;;;12.84;98.02
17383;BME280;8809;51.892;8.384;2023-12-28T12:37:06;100200.72;;;12.64;99.52
17383;BME280;8809;51.892;8.384;2023-12-28T12:39:33;100197.34;;;12.68;99.04
17383;BME280;8809;51.892;8.384;2023-12-28T12:42:01;100190.16;;;12.61;99.56
17383;BME280;8809;51.892;8.384;2023-12-28T12:44:28;100188.38;;;12.60;98.75
17383;BME280;8809;51.892;8.384;2023-12-28T12:46:59;100190.34;;;12.67;99.46
17383;BME280;8809;51.892;8.384;2023-12-28T12:49:26;100172.06;;;12.69;98.02
17383;BME280;8809;51.892;8.384;2023-12-28T12:51:54;100176.31;;;12.65;99.41
17383;BME280;8809;51.892;8.384;2023-12-28T12:54:21;100172.78;;;12.63;98.17